KNIP

Jacksonville NAS (Towers Field) Airport

Jacksonville, Florida, USA
METAR KNIP 231101Z 17006KT 2 1/2SM +RA BR SCT009 BKN016 OVC055 18/18 A3000 RMK AO2 VIS 2V5 T2 SET P0002 T01830183 $
Observed Flight Rules
Jan-23 @ 11:01 UTC (54 minutes ago) Instrument Flight Rules
Wind Visibility Clouds Conditions
170° at 6 knots 2 1/2 miles
  • Scattered at 900' AGL
  • Broken at 1,600' AGL
  • Overcast at 5,500' AGL
  • Heavy Rain
  • Mist
Temperatures Readings Precipitation
Current 18°C / 64°F
Dewpoint 18°C / 64°F
Humidity 100%
Altimeter 30" Hg
Pressure 1016 hPa
Elevation 7
Current Rain 0.02
METAR KNIP 231101Z 17006KT 2 1/2SM +RA BR SCT009 BKN016 OVC055 18/18 A3000 RMK AO2 VIS 2V5 T2 SET P0002 T01830183 $
Observed Flight Rules
Jan-23 @ 11:01 UTC
(54 minutes ago)
IFR
Wind Visibility
170° at 6 knots 2 1/2 miles
Clouds
  • Scattered at 900' AGL
  • Broken at 1,600' AGL
  • Overcast at 5,500' AGL
Conditions
  • Heavy Rain
  • Mist
Temperature Dewpoint
18°C / 64°F 18°C / 64°F
Humidity Altimeter Pressure
100% 30" Hg 1016 hPa
Current Rain
0.02